Time;durP1;ratioP1;P1;durP2;ratioP2;P2;SDS_P1;SDS_P2;PMS_P1;PMS_P2;Temp;Humidity;BMP_temperature;BMP_pressure;BME280_temperature;BME280_humidity;BME280_pressure;Samples;Min_cycle;Max_cycle;Signal;HPM_P1;HPM_P2
2021/08/06 00:00:00;;;;;;;57.87;2.37;;;15.40;99.90;;;;;;5073776;28;20858;-73
2021/08/06 00:02:27;;;;;;;57.97;2.27;;;15.40;99.90;;;;;;5074208;28;20457;-73
2021/08/06 00:04:56;;;;;;;57.87;2.30;;;15.40;99.90;;;;;;5074116;28;20539;-73
2021/08/06 00:07:23;;;;;;;57.67;2.30;;;15.30;99.90;;;;;;5074084;28;20486;-73
2021/08/06 00:09:51;;;;;;;58.17;2.30;;;15.30;99.90;;;;;;5073588;28;20448;-73
2021/08/06 00:12:18;;;;;;;57.87;2.60;;;15.30;99.90;;;;;;5073769;28;20542;-73
2021/08/06 00:14:45;;;;;;;58.17;2.30;;;15.30;99.90;;;;;;5073876;28;20927;-73
2021/08/06 00:17:13;;;;;;;58.23;2.40;;;15.20;99.90;;;;;;5073994;28;20445;-73
2021/08/06 00:19:40;;;;;;;58.03;2.50;;;15.20;99.90;;;;;;5073640;28;20534;-73
2021/08/06 00:22:07;;;;;;;58.07;2.37;;;15.20;99.90;;;;;;5073514;28;20797;-73
2021/08/06 00:24:34;;;;;;;57.97;2.50;;;15.20;99.90;;;;;;5073693;28;21043;-73
2021/08/06 00:27:01;;;;;;;57.97;2.40;;;15.20;99.90;;;;;;5073516;28;20543;-73
2021/08/06 00:29:27;;;;;;;58.10;2.30;;;15.20;99.90;;;;;;5073506;28;20544;-75
2021/08/06 00:31:54;;;;;;;58.07;2.30;;;15.20;99.90;;;;;;5072848;28;20492;-73
2021/08/06 00:34:22;;;;;;;58.00;2.37;;;15.20;99.90;;;;;;5073219;28;20444;-73
2021/08/06 00:36:49;;;;;;;58.03;2.30;;;15.20;99.90;;;;;;5073503;28;20539;-73
2021/08/06 00:39:16;;;;;;;58.00;2.37;;;15.20;99.90;;;;;;5073058;28;20874;-73
2021/08/06 00:41:43;;;;;;;57.97;2.30;;;15.20;99.90;;;;;;5073367;28;20488;-73
2021/08/06 00:44:10;;;;;;;58.17;2.60;;;15.20;99.90;;;;;;5073491;28;20450;-72
2021/08/06 00:46:37;;;;;;;58.07;2.57;;;15.20;99.90;;;;;;5073402;28;20556;-73
2021/08/06 00:49:04;;;;;;;58.10;2.40;;;15.20;99.90;;;;;;5073019;28;20457;-72
2021/08/06 00:51:34;;;;;;;58.30;2.60;;;15.20;99.90;;;;;;5072873;28;20859;-73
2021/08/06 00:54:01;;;;;;;57.87;3.00;;;15.20;99.90;;;;;;5072974;28;20540;-73
2021/08/06 00:56:27;;;;;;;58.17;2.50;;;15.20;99.90;;;;;;5073200;28;20487;-73
2021/08/06 00:58:55;;;;;;;58.13;2.60;;;15.20;99.90;;;;;;5073042;28;21015;-74
2021/08/06 01:01:22;;;;;;;58.00;2.50;;;15.20;99.90;;;;;;5072658;28;20475;-74
2021/08/06 01:03:59;;;;;;;58.17;2.57;;;15.20;99.90;;;;;;5072952;28;20535;-74
2021/08/06 01:06:37;;;;;;;57.97;2.60;;;15.20;99.90;;;;;;5072821;28;20455;-73
2021/08/06 01:09:14;;;;;;;58.20;2.30;;;15.20;99.90;;;;;;5072539;28;21139;-73
2021/08/06 01:11:46;;;;;;;57.87;2.40;;;15.20;99.90;;;;;;5072668;28;20493;-74
2021/08/06 01:14:16;;;;;;;58.17;2.30;;;15.20;99.90;;;;;;5072809;28;20536;-74
2021/08/06 01:16:46;;;;;;;58.17;2.23;;;15.20;99.90;;;;;;5072552;28;20544;-74
2021/08/06 01:19:21;;;;;;;58.13;2.30;;;15.20;99.90;;;;;;5072522;28;20445;-73
2021/08/06 01:21:52;;;;;;;58.03;2.33;;;15.10;99.90;;;;;;5072399;28;20996;-74
2021/08/06 01:24:23;;;;;;;58.27;2.33;;;15.10;99.90;;;;;;5072660;28;20510;-74
2021/08/06 01:26:51;;;;;;;57.93;2.40;;;15.10;99.90;;;;;;5072483;28;20544;-74
2021/08/06 01:29:19;;;;;;;58.40;2.50;;;15.00;99.90;;;;;;5071992;28;20531;-74
2021/08/06 01:31:47;;;;;;;58.20;2.40;;;15.00;99.90;;;;;;5072189;28;20491;-74
2021/08/06 01:34:13;;;;;;;58.70;2.70;;;15.10;99.90;;;;;;5072298;28;20461;-73
2021/08/06 01:36:40;;;;;;;58.30;2.30;;;15.10;99.90;;;;;;5072347;28;20886;-73
2021/08/06 01:39:07;;;;;;;58.07;2.50;;;15.10;99.90;;;;;;5071986;28;20987;-73
2021/08/06 01:41:41;;;;;;;58.20;2.40;;;15.10;99.90;;;;;;5070813;28;20552;-73
2021/08/06 01:44:14;;;;;;;57.97;2.50;;;15.10;99.90;;;;;;5071960;28;20453;-73
2021/08/06 01:46:45;;;;;;;57.97;2.57;;;15.10;99.90;;;;;;5072216;28;20449;-73
2021/08/06 01:49:14;;;;;;;58.17;2.40;;;15.10;99.90;;;;;;5071887;28;20481;-73
2021/08/06 01:51:43;;;;;;;57.87;2.50;;;15.10;99.90;;;;;;5071958;28;20572;-74
2021/08/06 01:54:12;;;;;;;58.20;2.50;;;15.20;99.90;;;;;;5072281;28;20544;-75
2021/08/06 01:56:40;;;;;;;58.07;2.37;;;15.20;99.90;;;;;;5072051;28;20448;-74
2021/08/06 01:59:10;;;;;;;58.10;2.40;;;15.30;99.90;;;;;;5071761;28;20541;-73
2021/08/06 02:01:38;;;;;;;57.90;2.50;;;15.30;99.90;;;;;;5071845;28;20465;-74
2021/08/06 02:04:05;;;;;;;58.33;2.50;;;15.40;99.70;;;;;;5071964;28;20547;-73
2021/08/06 02:06:33;;;;;;;57.67;2.50;;;15.40;98.60;;;;;;5071877;28;20459;-74
2021/08/06 02:09:00;;;;;;;57.97;2.60;;;15.40;97.20;;;;;;5071840;28;21041;-73
2021/08/06 02:11:27;;;;;;;58.17;2.60;;;15.40;96.70;;;;;;5071505;28;20494;-73
2021/08/06 02:13:55;;;;;;;57.97;2.47;;;15.50;96.00;;;;;;5071879;28;20488;-74
2021/08/06 02:16:26;;;;;;;58.07;2.47;;;15.50;95.30;;;;;;5071975;28;20524;-74
2021/08/06 02:18:54;;;;;;;57.83;2.50;;;15.50;94.10;;;;;;5071802;28;20471;-74
2021/08/06 02:21:26;;;;;;;57.97;2.50;;;15.50;92.80;;;;;;5071326;28;20473;-74
2021/08/06 02:23:58;;;;;;;58.03;2.50;;;15.50;93.10;;;;;;5071879;28;20454;-74
2021/08/06 02:26:26;;;;;;;58.17;3.00;;;15.50;93.50;;;;;;5071875;28;20905;-74
2021/08/06 02:28:53;;;;;;;57.87;2.60;;;15.60;93.20;;;;;;5071603;28;20449;-74
2021/08/06 02:31:22;;;;;;;58.27;2.60;;;15.60;92.00;;;;;;5071039;28;20485;-74
2021/08/06 02:33:50;;;;;;;58.27;2.67;;;15.60;90.00;;;;;;5071909;28;20501;-74
2021/08/06 02:36:17;;;;;;;58.50;3.37;;;15.70;87.80;;;;;;5071754;28;20533;-74
2021/08/06 02:38:44;;;;;;;58.17;2.50;;;15.70;85.90;;;;;;5071714;28;20882;-75
2021/08/06 02:41:11;;;;;;;57.87;2.60;;;15.70;85.10;;;;;;5071120;28;20469;-74
2021/08/06 02:43:40;;;;;;;57.63;2.40;;;15.70;84.50;;;;;;5071575;28;20445;-74
2021/08/06 02:46:07;;;;;;;57.77;2.50;;;15.70;85.50;;;;;;5071397;28;20842;-74
2021/08/06 02:48:34;;;;;;;58.03;2.47;;;15.70;87.00;;;;;;5071867;28;20460;-75
2021/08/06 02:51:02;;;;;;;58.07;2.60;;;15.70;87.80;;;;;;5071134;28;20478;-74
2021/08/06 02:53:29;;;;;;;57.90;2.50;;;15.70;89.30;;;;;;5071611;28;20874;-74
2021/08/06 02:55:56;;;;;;;57.93;2.50;;;15.70;90.20;;;;;;5072601;28;20492;-74
2021/08/06 02:58:22;;;;;;;57.90;2.50;;;15.80;90.70;;;;;;5075348;28;20537;-74
2021/08/06 03:00:50;;;;;;;57.87;2.43;;;15.80;91.20;;;;;;5074859;28;20499;-74
2021/08/06 03:03:17;;;;;;;58.17;2.43;;;15.80;91.40;;;;;;5075420;28;20460;-74
2021/08/06 03:05:44;;;;;;;57.93;2.70;;;15.80;91.60;;;;;;5075398;28;20533;-74
2021/08/06 03:08:12;;;;;;;57.87;2.50;;;15.80;91.50;;;;;;5075284;28;20448;-74
2021/08/06 03:10:39;;;;;;;58.30;2.60;;;15.80;91.80;;;;;;5074792;28;20555;-74
2021/08/06 03:13:06;;;;;;;57.97;2.53;;;15.70;91.80;;;;;;5074890;28;20886;-74
2021/08/06 03:15:33;;;;;;;58.30;2.47;;;15.70;92.10;;;;;;5074867;28;20844;-74
2021/08/06 03:18:00;;;;;;;58.57;3.00;;;15.70;92.20;;;;;;5075168;28;20537;-74
2021/08/06 03:20:28;;;;;;;58.07;2.50;;;15.70;92.30;;;;;;5074601;28;20504;-74
2021/08/06 03:22:55;;;;;;;58.03;2.53;;;15.70;92.20;;;;;;5074500;28;20515;-74
2021/08/06 03:25:23;;;;;;;57.97;2.60;;;15.70;92.00;;;;;;5074632;28;20484;-74
2021/08/06 03:27:50;;;;;;;58.17;2.60;;;15.70;91.60;;;;;;5074569;28;20487;-73
2021/08/06 03:30:16;;;;;;;57.93;2.67;;;15.70;91.40;;;;;;5074725;28;20962;-74
2021/08/06 03:32:44;;;;;;;58.30;2.50;;;15.70;91.50;;;;;;5074436;28;20581;-73
2021/08/06 03:35:14;;;;;;;58.13;2.50;;;15.70;91.20;;;;;;5074742;28;20887;-73
2021/08/06 03:37:41;;;;;;;57.93;2.60;;;15.70;91.20;;;;;;5074698;28;20476;-73
2021/08/06 03:40:09;;;;;;;58.27;2.83;;;15.70;90.90;;;;;;5074154;28;20533;-73
2021/08/06 03:42:37;;;;;;;58.07;2.70;;;15.70;91.30;;;;;;5074363;28;20879;-73
2021/08/06 03:45:06;;;;;;;58.00;2.53;;;15.70;91.30;;;;;;5074841;28;20541;-73
2021/08/06 03:47:33;;;;;;;58.17;2.60;;;15.70;91.30;;;;;;5074746;28;20484;-73
2021/08/06 03:50:00;;;;;;;58.07;2.43;;;15.70;91.20;;;;;;5074266;28;20535;-74
2021/08/06 03:52:26;;;;;;;58.33;2.60;;;15.70;91.10;;;;;;5074492;28;20560;-73
2021/08/06 03:54:53;;;;;;;58.40;2.70;;;15.70;91.10;;;;;;5074572;28;20446;-73
2021/08/06 03:57:20;;;;;;;58.03;2.50;;;15.70;90.70;;;;;;5074975;28;20472;-74
2021/08/06 03:59:48;;;;;;;57.97;2.50;;;15.60;90.30;;;;;;5074219;28;20481;-73
2021/08/06 04:02:16;;;;;;;58.07;2.50;;;15.60;90.50;;;;;;5074318;28;21000;-73
2021/08/06 04:04:42;;;;;;;57.60;2.60;;;15.60;90.30;;;;;;5074276;28;20462;-73
2021/08/06 04:07:09;;;;;;;58.20;2.67;;;15.60;90.20;;;;;;5073899;28;20524;-73
2021/08/06 04:09:36;;;;;;;58.23;2.40;;;15.60;88.50;;;;;;5073891;28;20552;-73
2021/08/06 04:12:03;;;;;;;58.27;2.50;;;15.60;88.20;;;;;;5073721;28;20585;-73
2021/08/06 04:14:30;;;;;;;58.23;2.57;;;15.60;87.50;;;;;;5073883;28;20488;-73
2021/08/06 04:16:58;;;;;;;58.07;2.50;;;15.60;86.40;;;;;;5073894;28;20537;-73
2021/08/06 04:19:25;;;;;;;58.17;2.40;;;15.60;85.10;;;;;;5073707;28;20456;-74
2021/08/06 04:21:52;;;;;;;57.87;2.50;;;15.60;84.60;;;;;;5073690;28;21059;-74
2021/08/06 04:24:19;;;;;;;58.17;2.67;;;15.60;83.50;;;;;;5073987;28;21065;-73
2021/08/06 04:26:46;;;;;;;58.00;2.47;;;15.60;83.30;;;;;;5073809;28;20531;-74
2021/08/06 04:29:13;;;;;;;58.13;2.50;;;15.60;82.70;;;;;;5073507;28;20539;-73
2021/08/06 04:31:39;;;;;;;58.40;2.70;;;15.60;82.60;;;;;;5073709;28;20940;-73
2021/08/06 04:34:07;;;;;;;58.10;2.50;;;15.60;83.30;;;;;;5073486;28;20540;-73
2021/08/06 04:36:34;;;;;;;58.27;2.50;;;15.60;82.10;;;;;;5073426;28;20449;-73
2021/08/06 04:39:01;;;;;;;57.67;2.47;;;15.60;81.90;;;;;;5073725;28;20820;-73
2021/08/06 04:41:28;;;;;;;58.17;2.40;;;15.60;80.10;;;;;;5073227;28;20553;-73
2021/08/06 04:43:55;;;;;;;57.87;2.50;;;15.60;79.50;;;;;;5073409;28;20476;-74
2021/08/06 04:46:22;;;;;;;58.03;2.60;;;15.60;81.30;;;;;;5073249;28;20967;-73
2021/08/06 04:48:48;;;;;;;57.97;2.40;;;15.60;81.40;;;;;;5073298;28;20449;-74
2021/08/06 04:51:17;;;;;;;57.97;2.40;;;15.60;82.50;;;;;;5072690;28;20470;-75
2021/08/06 04:53:43;;;;;;;57.83;2.43;;;15.50;82.10;;;;;;5073271;28;20455;-75
2021/08/06 04:56:10;;;;;;;58.17;2.77;;;15.40;82.20;;;;;;5073275;28;20448;-74
2021/08/06 04:58:37;;;;;;;57.83;2.50;;;15.30;84.80;;;;;;5073164;28;20489;-74
2021/08/06 05:01:04;;;;;;;57.87;2.50;;;15.30;87.20;;;;;;5072560;28;20477;-73
2021/08/06 05:03:31;;;;;;;58.20;2.50;;;15.30;86.40;;;;;;5072888;28;20476;-73
2021/08/06 05:05:58;;;;;;;58.27;2.50;;;15.30;86.70;;;;;;5073094;28;20532;-74
2021/08/06 05:08:26;;;;;;;58.23;2.60;;;15.30;87.60;;;;;;5073117;28;20480;-73
2021/08/06 05:10:53;;;;;;;58.13;2.60;;;15.30;88.80;;;;;;5072403;28;20469;-73
2021/08/06 05:13:20;;;;;;;58.17;2.50;;;15.30;90.00;;;;;;5072756;28;20484;-73
2021/08/06 05:15:47;;;;;;;58.20;2.60;;;15.30;90.40;;;;;;5072649;28;21051;-73
2021/08/06 05:18:13;;;;;;;57.83;2.50;;;15.30;91.20;;;;;;5071692;28;20543;-73
2021/08/06 05:20:40;;;;;;;57.77;2.40;;;15.40;92.20;;;;;;5072370;28;20469;-73
2021/08/06 05:23:07;;;;;;;57.83;2.43;;;15.40;93.10;;;;;;5072780;28;20441;-73
2021/08/06 05:25:36;;;;;;;58.27;2.70;;;15.40;95.00;;;;;;5073171;28;20482;-73
2021/08/06 05:28:03;;;;;;;58.00;2.33;;;15.40;96.70;;;;;;5072433;28;20886;-73
2021/08/06 05:30:30;;;;;;;58.17;2.50;;;15.40;97.60;;;;;;5072090;28;20546;-73
2021/08/06 05:32:57;;;;;;;57.83;2.50;;;15.40;98.10;;;;;;5072235;28;20499;-72
2021/08/06 05:35:24;;;;;;;57.97;2.63;;;15.40;98.40;;;;;;5072719;28;20488;-73
2021/08/06 05:37:51;;;;;;;57.67;2.30;;;15.40;98.80;;;;;;5072550;28;20518;-73
2021/08/06 05:40:17;;;;;;;58.00;2.43;;;15.40;99.20;;;;;;5071935;28;20468;-73
2021/08/06 05:42:46;;;;;;;57.87;2.83;;;15.40;99.40;;;;;;5072353;28;20977;-73
2021/08/06 05:45:13;;;;;;;57.93;2.30;;;15.40;99.60;;;;;;5072231;28;20540;-73
2021/08/06 05:47:44;;;;;;;57.53;2.27;;;15.40;99.90;;;;;;5072464;28;20483;-72
2021/08/06 05:50:12;;;;;;;57.77;2.67;;;15.30;99.90;;;;;;5071859;28;20447;-72
2021/08/06 05:52:39;;;;;;;58.07;2.30;;;15.30;99.90;;;;;;5071996;28;20482;-72
2021/08/06 05:55:06;;;;;;;57.93;2.43;;;15.30;99.90;;;;;;5071986;28;20538;-71
2021/08/06 05:57:33;;;;;;;57.93;2.43;;;15.30;99.90;;;;;;5072065;28;20453;-72
2021/08/06 06:00:01;;;;;;;57.93;2.30;;;15.30;99.90;;;;;;5071552;28;20533;-71
2021/08/06 06:02:28;;;;;;;58.17;2.60;;;15.40;99.90;;;;;;5072106;28;20452;-71
2021/08/06 06:04:55;;;;;;;58.17;3.07;;;15.40;99.90;;;;;;5071960;28;20453;-71
2021/08/06 06:07:22;;;;;;;57.90;2.40;;;15.40;99.90;;;;;;5071959;28;20545;-72
2021/08/06 06:09:49;;;;;;;57.87;2.50;;;15.40;99.90;;;;;;5071782;28;20449;-71
2021/08/06 06:12:15;;;;;;;58.70;3.37;;;15.50;99.90;;;;;;5071467;28;20491;-71
2021/08/06 06:14:42;;;;;;;57.90;2.50;;;15.50;99.90;;;;;;5072023;28;20504;-72
2021/08/06 06:17:11;;;;;;;57.70;2.50;;;15.50;99.90;;;;;;5071854;28;20455;-70
2021/08/06 06:19:38;;;;;;;58.07;3.03;;;15.70;99.90;;;;;;5071612;28;20457;-71
2021/08/06 06:22:05;;;;;;;57.90;2.50;;;15.80;99.90;;;;;;5071417;28;20492;-71
2021/08/06 06:24:34;;;;;;;57.90;3.00;;;16.00;99.90;;;;;;5071636;28;20450;-71
2021/08/06 06:27:01;;;;;;;57.87;2.60;;;16.10;99.90;;;;;;5071402;28;20987;-71
2021/08/06 06:29:27;;;;;;;57.83;2.50;;;16.20;99.90;;;;;;5069046;28;20884;-72
2021/08/06 06:31:54;;;;;;;57.87;2.47;;;16.50;99.90;;;;;;5068242;28;20515;-72
2021/08/06 06:34:22;;;;;;;57.97;2.77;;;16.50;99.90;;;;;;5054992;28;20515;-72
2021/08/06 06:36:49;;;;;;;57.87;2.40;;;16.60;99.90;;;;;;5055497;28;20533;-72
2021/08/06 06:39:16;;;;;;;57.77;2.70;;;16.60;99.90;;;;;;5054528;28;20449;-72
2021/08/06 06:41:43;;;;;;;57.97;2.60;;;16.60;99.90;;;;;;5054714;28;20481;-72
2021/08/06 06:44:10;;;;;;;57.63;2.50;;;16.70;99.90;;;;;;5055151;28;20450;-72
2021/08/06 06:46:37;;;;;;;57.97;2.43;;;16.80;99.90;;;;;;5055030;28;20484;-72
2021/08/06 06:49:03;;;;;;;57.63;2.33;;;16.90;99.10;;;;;;5054584;28;20490;-72
2021/08/06 06:51:32;;;;;;;58.37;2.83;;;16.90;98.30;;;;;;5053681;28;20583;-73
2021/08/06 06:53:58;;;;;;;58.27;2.60;;;16.80;98.00;;;;;;5054429;28;20529;-72
2021/08/06 06:56:25;;;;;;;57.67;2.40;;;16.80;97.30;;;;;;5054793;28;20505;-72
2021/08/06 06:58:53;;;;;;;57.63;2.60;;;16.80;97.00;;;;;;5054592;28;21018;-72
2021/08/06 07:01:19;;;;;;;57.97;2.27;;;16.90;97.20;;;;;;5054547;28;20964;-72
2021/08/06 07:03:46;;;;;;;58.20;2.50;;;16.90;96.90;;;;;;5054662;28;20575;-72
2021/08/06 07:06:17;;;;;;;57.37;2.40;;;16.90;96.30;;;;;;5074591;28;20544;-72
2021/08/06 07:08:45;;;;;;;57.77;2.50;;;16.80;95.80;;;;;;5074446;28;20442;-72
2021/08/06 07:11:13;;;;;;;57.57;2.40;;;16.70;96.00;;;;;;5073888;28;20473;-72
2021/08/06 07:13:40;;;;;;;58.00;2.40;;;16.70;96.20;;;;;;5074501;28;20684;-72
2021/08/06 07:16:07;;;;;;;58.10;2.50;;;16.70;96.50;;;;;;5074596;28;20477;-72
2021/08/06 07:18:34;;;;;;;57.50;2.50;;;16.80;97.10;;;;;;5074552;28;21056;-72
2021/08/06 07:21:01;;;;;;;57.97;2.27;;;17.00;98.50;;;;;;5073858;28;21065;-72
2021/08/06 07:23:28;;;;;;;57.77;2.47;;;17.20;98.70;;;;;;5074442;28;20540;-72
2021/08/06 07:25:57;;;;;;;57.77;2.27;;;17.20;97.30;;;;;;5074479;28;20838;-71
2021/08/06 07:28:24;;;;;;;57.53;2.30;;;17.20;93.00;;;;;;5074070;28;20564;-71
2021/08/06 07:30:51;;;;;;;57.97;2.40;;;17.20;90.90;;;;;;5073966;28;20470;-72
2021/08/06 07:33:18;;;;;;;57.87;2.40;;;17.10;90.70;;;;;;5073834;28;20509;-72
2021/08/06 07:35:45;;;;;;;57.73;2.50;;;17.10;87.40;;;;;;5072422;28;20449;-72
2021/08/06 07:38:11;;;;;;;57.77;2.40;;;17.10;84.70;;;;;;5074894;28;20540;-72
2021/08/06 07:40:38;;;;;;;57.77;2.50;;;17.10;85.00;;;;;;5074547;28;20502;-72
2021/08/06 07:43:06;;;;;;;57.77;2.67;;;17.10;80.50;;;;;;5074643;28;20530;-72
2021/08/06 07:45:33;;;;;;;58.00;2.60;;;17.20;80.00;;;;;;5074325;28;20843;-72
2021/08/06 07:48:00;;;;;;;57.93;2.43;;;17.30;82.90;;;;;;5073629;28;20538;-72
2021/08/06 07:50:27;;;;;;;57.67;2.73;;;17.30;81.60;;;;;;5073400;28;20560;-73
2021/08/06 07:52:54;;;;;;;57.67;2.50;;;17.30;80.40;;;;;;5073702;28;20865;-72
2021/08/06 07:55:21;;;;;;;58.10;2.60;;;17.40;79.50;;;;;;5074037;28;20450;-72
2021/08/06 07:57:48;;;;;;;57.83;2.33;;;17.40;83.30;;;;;;5074129;28;20537;-73
2021/08/06 08:00:17;;;;;;;57.87;2.50;;;17.40;81.70;;;;;;5073844;28;20505;-72
2021/08/06 08:02:44;;;;;;;57.97;2.37;;;17.40;81.40;;;;;;5073878;28;20481;-73
2021/08/06 08:05:11;;;;;;;57.63;2.50;;;17.40;78.80;;;;;;5074093;28;20478;-72
2021/08/06 08:07:38;;;;;;;57.90;2.60;;;17.40;77.00;;;;;;5071988;28;20447;-73
2021/08/06 08:10:05;;;;;;;58.03;2.60;;;17.30;74.10;;;;;;5052886;28;20535;-72
2021/08/06 08:12:32;;;;;;;58.00;2.80;;;17.20;73.40;;;;;;5053044;28;20475;-73
2021/08/06 08:14:59;;;;;;;57.77;2.33;;;17.00;73.10;;;;;;5053337;28;20826;-74
2021/08/06 08:17:27;;;;;;;57.87;2.40;;;16.90;73.30;;;;;;5053480;28;20885;-74
2021/08/06 08:19:54;;;;;;;57.83;2.40;;;16.70;75.40;;;;;;5053458;28;20550;-74
2021/08/06 08:22:21;;;;;;;58.20;3.00;;;16.70;77.70;;;;;;5053466;28;20550;-74
2021/08/06 08:24:48;;;;;;;58.33;2.73;;;16.80;80.20;;;;;;5053500;28;20534;-74
2021/08/06 08:27:14;;;;;;;57.57;2.40;;;16.90;85.10;;;;;;5053273;28;21034;-74
2021/08/06 08:29:42;;;;;;;57.90;2.30;;;17.10;88.70;;;;;;5052815;28;20558;-74
2021/08/06 08:32:09;;;;;;;57.90;2.40;;;17.20;90.00;;;;;;5053140;28;20471;-74
2021/08/06 08:34:37;;;;;;;57.63;2.40;;;17.30;90.00;;;;;;5052944;28;20570;-74
2021/08/06 08:37:04;;;;;;;57.67;2.60;;;17.40;90.20;;;;;;5053171;28;20491;-74
2021/08/06 08:39:31;;;;;;;57.77;2.30;;;17.60;90.70;;;;;;5055204;28;20454;-74
2021/08/06 08:42:00;;;;;;;57.87;2.30;;;17.70;87.50;;;;;;5073260;28;20471;-74
2021/08/06 08:44:27;;;;;;;57.50;2.43;;;17.90;88.00;;;;;;5073074;28;20859;-74
2021/08/06 08:46:54;;;;;;;57.67;2.40;;;18.10;89.10;;;;;;5073144;28;20882;-74
2021/08/06 08:49:24;;;;;;;57.87;2.30;;;18.30;89.80;;;;;;5072418;28;20459;-73
2021/08/06 08:51:52;;;;;;;57.90;2.70;;;18.50;85.80;;;;;;5072999;28;20502;-73
2021/08/06 08:54:19;;;;;;;57.47;2.40;;;18.60;69.60;;;;;;5071473;28;20483;-73
2021/08/06 08:56:46;;;;;;;57.87;2.70;;;18.80;63.50;;;;;;5072514;28;20498;-73
2021/08/06 08:59:13;;;;;;;57.77;2.60;;;18.90;45.80;;;;;;5072862;28;20860;-73
2021/08/06 09:01:40;;;;;;;57.77;2.50;;;19.00;43.00;;;;;;5072706;28;20929;-73
2021/08/06 09:04:20;;;;;;;58.60;3.17;;;19.00;21.50;;;;;;5072998;28;20443;-73
2021/08/06 09:06:47;;;;;;;58.30;2.33;;;19.00;8.50;;;;;;5072661;28;20453;-73
2021/08/06 09:09:17;;;;;;;57.77;2.50;;;19.20;9.20;;;;;;5072044;28;20457;-73
2021/08/06 09:11:44;;;;;;;57.90;2.60;;;19.30;1.00;;;;;;5060884;28;20485;-73
2021/08/06 09:14:19;;;;;;;58.00;2.40;;;19.50;1.00;;;;;;5052021;28;20492;-73
2021/08/06 09:17:01;;;;;;;57.73;2.30;;;19.70;1.00;;;;;;5052361;28;20546;-73
2021/08/06 09:19:30;;;;;;;57.93;2.40;;;19.80;1.00;;;;;;5052338;28;20460;-73
2021/08/06 09:22:12;;;;;;;58.13;3.07;;;19.90;1.00;;;;;;5052182;28;20514;-73
2021/08/06 09:24:58;;;;;;;58.00;2.23;;;20.10;1.00;;;;;;5052772;28;20446;-73
2021/08/06 09:27:25;;;;;;;58.10;2.20;;;20.30;1.00;;;;;;5052161;28;20454;-73
2021/08/06 09:29:52;;;;;;;57.57;2.20;;;20.20;1.00;;;;;;5052052;28;20481;-73
2021/08/06 09:32:19;;;;;;;58.20;2.60;;;20.30;1.00;;;;;;5051726;28;20533;-73
2021/08/06 09:34:47;;;;;;;57.67;2.30;;;20.40;1.00;;;;;;5052041;28;20580;-74
2021/08/06 09:37:16;;;;;;;57.40;2.33;;;20.40;1.00;;;;;;5052192;28;20451;-72
2021/08/06 09:39:47;;;;;;;57.47;2.90;;;20.20;1.00;;;;;;5051951;28;20459;-73
2021/08/06 09:42:21;;;;;;;57.97;2.30;;;20.10;1.00;;;;;;5051506;28;20910;-73
2021/08/06 09:44:58;;;;;;;58.00;2.20;;;19.90;1.00;;;;;;5072040;28;20481;-73
2021/08/06 09:47:25;;;;;;;57.57;2.40;;;19.70;1.00;;;;;;5072095;28;20454;-73
2021/08/06 09:49:54;;;;;;;57.43;2.30;;;19.60;1.00;;;;;;5071216;28;20539;-73
2021/08/06 09:52:28;;;;;;;58.20;2.50;;;19.60;1.00;;;;;;5071610;28;20453;-73
2021/08/06 09:54:55;;;;;;;58.27;2.50;;;19.60;1.00;;;;;;5071367;28;20583;-74
2021/08/06 09:57:24;;;;;;;57.67;2.10;;;19.60;1.00;;;;;;5071716;28;20531;-74
2021/08/06 09:59:52;;;;;;;58.07;2.40;;;19.60;1.00;;;;;;5071735;28;20537;-74
2021/08/06 10:02:22;;;;;;;57.93;2.30;;;19.80;1.00;;;;;;5072127;28;20446;-73
2021/08/06 10:05:02;;;;;;;57.90;2.30;;;19.90;1.00;;;;;;5071900;28;20454;-74
2021/08/06 10:07:30;;;;;;;58.00;2.20;;;20.20;1.00;;;;;;5071710;28;20502;-74
2021/08/06 10:09:58;;;;;;;57.63;2.03;;;20.30;1.00;;;;;;5071162;28;20877;-74
2021/08/06 10:12:26;;;;;;;57.73;2.20;;;20.30;1.00;;;;;;5071250;28;20478;-74
2021/08/06 10:14:54;;;;;;;57.37;2.00;;;20.20;1.00;;;;;;5063738;28;20589;-73
2021/08/06 10:17:21;;;;;;;57.97;2.20;;;20.10;1.00;;;;;;5051153;28;20555;-69
2021/08/06 10:19:48;;;;;;;57.80;2.20;;;20.30;1.00;;;;;;5051348;28;20479;-70
2021/08/06 10:22:15;;;;;;;58.00;2.20;;;20.70;1.00;;;;;;5051169;28;20511;-71
2021/08/06 10:24:46;;;;;;;57.67;2.40;;;22.00;1.00;;;;;;5051455;28;20444;-72
2021/08/06 10:27:14;;;;;;;57.80;2.03;;;23.20;1.00;;;;;;5051390;28;20460;-71
2021/08/06 10:29:57;;;;;;;57.53;2.00;;;24.30;1.00;;;;;;5050675;28;20462;-71
2021/08/06 10:32:24;;;;;;;57.57;2.03;;;25.10;1.00;;;;;;5050917;28;20455;-71
2021/08/06 10:35:16;;;;;;;57.47;2.10;;;25.70;1.00;;;;;;5051024;28;20518;-74
2021/08/06 10:37:53;;;;;;;57.47;2.03;;;25.90;1.00;;;;;;5051291;28;20452;-70
2021/08/06 10:41:01;;;;;;;57.67;2.27;;;25.20;1.00;;;;;;5051180;28;20471;-69
2021/08/06 10:44:03;;;;;;;57.73;1.97;;;24.20;1.00;;;;;;5051630;28;20448;-71
2021/08/06 10:46:52;;;;;;;57.97;2.07;;;23.50;1.00;;;;;;5055897;28;20457;-72
2021/08/06 10:49:19;;;;;;;57.97;2.17;;;22.60;1.00;;;;;;5070529;28;20807;-71
2021/08/06 10:51:46;;;;;;;57.93;2.20;;;22.00;1.00;;;;;;5070773;28;20463;-72
2021/08/06 10:54:30;;;;;;;57.87;2.40;;;21.60;1.00;;;;;;5070972;28;21005;-70
2021/08/06 10:57:25;;;;;;;57.83;2.10;;;21.20;1.00;;;;;;5070909;28;20726;-71
2021/08/06 10:59:54;;;;;;;58.17;2.40;;;20.60;1.00;;;;;;5070989;28;20538;-71
2021/08/06 11:02:48;;;;;;;58.97;3.40;;;20.20;1.00;;;;;;5071338;28;20453;-70
2021/08/06 11:05:31;;;;;;;58.03;2.40;;;20.60;1.00;;;;;;5071178;28;20443;-70
2021/08/06 11:08:01;;;;;;;58.10;2.50;;;21.00;1.00;;;;;;5070758;28;20537;-70
2021/08/06 11:10:49;;;;;;;57.90;2.10;;;21.60;1.00;;;;;;5070746;28;20563;-70
2021/08/06 11:14:02;;;;;;;57.87;2.20;;;22.10;1.00;;;;;;5070649;28;21076;-70
2021/08/06 11:16:29;;;;;;;57.87;2.13;;;22.10;1.00;;;;;;5071063;28;20490;-71
2021/08/06 11:18:57;;;;;;;57.83;2.20;;;22.10;1.00;;;;;;5058332;28;21028;-70
2021/08/06 11:21:24;;;;;;;57.77;2.30;;;22.20;1.00;;;;;;5054240;28;21058;-71
2021/08/06 11:23:59;;;;;;;57.87;2.07;;;22.10;1.00;;;;;;5054938;28;20531;-71
2021/08/06 11:26:26;;;;;;;57.97;2.20;;;22.10;1.00;;;;;;5054563;28;20450;-71
2021/08/06 11:28:56;;;;;;;57.87;2.10;;;21.70;1.00;;;;;;5053990;28;20979;-71
2021/08/06 11:31:23;;;;;;;57.80;2.10;;;21.30;1.00;;;;;;5052904;28;20551;-73
2021/08/06 11:34:01;;;;;;;57.93;2.10;;;20.80;1.00;;;;;;5053652;28;20570;-71
2021/08/06 11:36:28;;;;;;;57.97;2.27;;;20.40;1.00;;;;;;5053074;28;20447;-70
2021/08/06 11:39:02;;;;;;;57.80;2.23;;;20.40;1.00;;;;;;5054364;28;20447;-67
2021/08/06 11:41:29;;;;;;;57.87;2.10;;;21.00;1.00;;;;;;5053917;28;20480;-69
2021/08/06 11:43:58;;;;;;;57.80;2.17;;;21.50;1.00;;;;;;5054219;28;20448;-70
2021/08/06 11:46:25;;;;;;;57.80;2.10;;;21.90;1.00;;;;;;5053889;28;20498;-70
2021/08/06 11:48:56;;;;;;;57.47;2.20;;;22.30;1.00;;;;;;5053621;28;20542;-70
2021/08/06 11:51:24;;;;;;;57.77;2.10;;;22.40;1.00;;;;;;5064653;28;20477;-70
2021/08/06 11:53:51;;;;;;;57.50;2.40;;;23.20;1.00;;;;;;5073506;28;20536;-70
2021/08/06 11:56:20;;;;;;;57.77;2.13;;;23.40;1.00;;;;;;5073362;28;20733;-70
2021/08/06 11:58:47;;;;;;;57.67;2.27;;;23.40;1.00;;;;;;5073890;28;20535;-70
2021/08/06 12:01:19;;;;;;;57.67;1.90;;;24.10;1.00;;;;;;5072984;28;20553;-70
2021/08/06 12:03:47;;;;;;;57.67;2.00;;;24.90;1.00;;;;;;5074175;28;20455;-70
2021/08/06 12:06:16;;;;;;;57.80;2.40;;;25.80;1.00;;;;;;5074091;28;20534;-71
2021/08/06 12:08:45;;;;;;;57.43;1.90;;;26.30;1.00;;;;;;5073677;28;20554;-69
2021/08/06 12:11:14;;;;;;;57.60;1.90;;;26.50;1.00;;;;;;5073498;28;20489;-70
2021/08/06 12:13:47;;;;;;;57.63;1.97;;;25.80;1.00;;;;;;5073241;28;20534;-69
2021/08/06 12:16:17;;;;;;;57.67;2.30;;;25.10;1.00;;;;;;5073486;28;20451;-70
2021/08/06 12:18:47;;;;;;;57.50;2.00;;;24.80;1.00;;;;;;5073374;28;20447;-71
2021/08/06 12:21:17;;;;;;;57.47;1.80;;;25.10;1.00;;;;;;5073234;28;20569;-70
2021/08/06 12:23:47;;;;;;;57.70;2.00;;;26.20;1.00;;;;;;5071732;28;20451;-71
2021/08/06 12:26:21;;;;;;;57.67;1.90;;;27.80;1.00;;;;;;5073865;28;20465;-71
2021/08/06 12:28:51;;;;;;;57.40;1.90;;;29.20;1.00;;;;;;5072142;28;20546;-71
2021/08/06 12:31:24;;;;;;;57.27;2.10;;;29.70;1.00;;;;;;5073121;28;20472;-70
2021/08/06 12:34:05;;;;;;;57.23;1.80;;;30.00;1.00;;;;;;5073118;28;20520;-70
2021/08/06 12:36:33;;;;;;;56.97;1.90;;;30.50;1.00;;;;;;5073216;28;20471;-71
2021/08/06 12:39:10;;;;;;;57.60;1.90;;;30.30;1.00;;;;;;5073083;28;20447;-70
2021/08/06 12:41:38;;;;;;;59.50;2.10;;;29.30;1.00;;;;;;5073130;28;20467;-70
2021/08/06 12:44:23;;;;;;;57.30;1.90;;;28.40;1.00;;;;;;5073218;28;20753;-70
2021/08/06 12:47:15;;;;;;;57.37;1.87;;;27.30;1.00;;;;;;5073311;28;20449;-70
2021/08/06 12:49:45;;;;;;;57.27;1.80;;;26.10;1.00;;;;;;5072767;28;20960;-70